Time;durP1;ratioP1;P1;durP2;ratioP2;P2;SDS_P1;SDS_P2;PMS_P1;PMS_P2;Temp;Humidity;BMP_temperature;BMP_pressure;BME280_temperature;BME280_humidity;BME280_pressure;Samples;Min_cycle;Max_cycle;Signal;HPM_P1;HPM_P2
2024/03/22 00:00:58;;;;;;;22.97;10.73;;;;;;;;;;5092260;28;20806;-82
2024/03/22 00:03:24;;;;;;;22.63;10.30;;;;;;;;;;5092262;28;20285;-82
2024/03/22 00:05:53;;;;;;;14.40;9.77;;;;;;;;;;5092865;28;20267;-82
2024/03/22 00:08:19;;;;;;;39.87;27.17;;;;;;;;;;5092389;28;20748;-82
2024/03/22 00:10:46;;;;;;;19.53;13.10;;;;;;;;;;5092551;28;20202;-81
2024/03/22 00:13:12;;;;;;;23.83;12.97;;;;;;;;;;5101117;28;20285;-83
2024/03/22 00:15:39;;;;;;;21.37;10.67;;;;;;;;;;5113238;28;20202;-82
2024/03/22 00:18:06;;;;;;;18.43;9.67;;;;;;;;;;5112210;28;20743;-82
2024/03/22 00:20:33;;;;;;;17.73;10.10;;;;;;;;;;5112920;28;20639;-81
2024/03/22 00:23:04;;;;;;;20.30;9.23;;;;;;;;;;5113132;28;20248;-81
2024/03/22 00:25:31;;;;;;;26.53;10.00;;;;;;;;;;5112577;28;20296;-82
2024/03/22 00:27:58;;;;;;;16.43;9.40;;;;;;;;;;5112874;28;20288;-81
2024/03/22 00:30:25;;;;;;;30.30;9.67;;;;;;;;;;5112250;28;20228;-82
2024/03/22 00:32:51;;;;;;;17.43;9.50;;;;;;;;;;5112145;28;20293;-82
2024/03/22 00:35:18;;;;;;;23.37;9.97;;;;;;;;;;5112654;28;20231;-82
2024/03/22 00:37:44;;;;;;;16.47;10.10;;;;;;;;;;5112818;28;20326;-82
2024/03/22 00:40:14;;;;;;;19.43;9.93;;;;;;;;;;5111940;28;20217;-82
2024/03/22 00:42:40;;;;;;;19.63;10.30;;;;;;;;;;5111693;28;20280;-82
2024/03/22 00:45:08;;;;;;;24.27;9.80;;;;;;;;;;5112680;28;20194;-81
2024/03/22 00:47:34;;;;;;;21.10;10.23;;;;;;;;;;5112338;28;20228;-82
2024/03/22 00:50:02;;;;;;;18.77;9.97;;;;;;;;;;5112291;28;20209;-82
2024/03/22 00:52:28;;;;;;;16.10;9.97;;;;;;;;;;5112204;28;20284;-82
2024/03/22 00:54:55;;;;;;;18.20;9.80;;;;;;;;;;5112426;28;20219;-81
2024/03/22 00:57:23;;;;;;;22.93;10.17;;;;;;;;;;5112755;28;20722;-82
2024/03/22 00:59:51;;;;;;;19.80;10.13;;;;;;;;;;5111724;28;20212;-83
2024/03/22 01:02:17;;;;;;;21.33;10.27;;;;;;;;;;5111384;28;20285;-82
2024/03/22 01:04:44;;;;;;;23.10;10.13;;;;;;;;;;5111956;28;20668;-83
2024/03/22 01:07:10;;;;;;;17.50;9.90;;;;;;;;;;5111898;28;20290;-81
2024/03/22 01:09:38;;;;;;;18.87;9.83;;;;;;;;;;5111938;28;20201;-82
2024/03/22 01:12:05;;;;;;;14.17;9.60;;;;;;;;;;5110578;28;20223;-82
2024/03/22 01:14:33;;;;;;;16.40;9.73;;;;;;;;;;5111562;28;20305;-82
2024/03/22 01:16:59;;;;;;;16.17;9.97;;;;;;;;;;5111873;28;20300;-82
2024/03/22 01:19:26;;;;;;;17.70;9.63;;;;;;;;;;5112138;28;20202;-82
2024/03/22 01:21:53;;;;;;;16.23;9.77;;;;;;;;;;5112383;28;20312;-83
2024/03/22 01:24:20;;;;;;;15.87;8.93;;;;;;;;;;5111339;28;20225;-82
2024/03/22 01:26:46;;;;;;;24.23;9.90;;;;;;;;;;5111578;28;20225;-82
2024/03/22 01:29:15;;;;;;;22.13;9.87;;;;;;;;;;5111778;28;20284;-82
2024/03/22 01:31:42;;;;;;;16.10;9.27;;;;;;;;;;5111690;28;20656;-82
2024/03/22 01:34:10;;;;;;;27.03;9.70;;;;;;;;;;5092802;28;20576;-82
2024/03/22 01:36:36;;;;;;;17.53;9.40;;;;;;;;;;5091687;28;20340;-82
2024/03/22 01:39:03;;;;;;;18.50;9.37;;;;;;;;;;5090699;28;20202;-82
2024/03/22 01:41:29;;;;;;;17.87;8.97;;;;;;;;;;5091151;28;20273;-82
2024/03/22 01:43:56;;;;;;;22.13;9.57;;;;;;;;;;5070394;28;20681;-82
2024/03/22 01:46:23;;;;;;;28.57;9.73;;;;;;;;;;5071226;28;20289;-82
2024/03/22 01:48:51;;;;;;;28.10;9.53;;;;;;;;;;5070863;28;20209;-82
2024/03/22 01:51:18;;;;;;;16.50;9.60;;;;;;;;;;5070712;28;20288;-82
2024/03/22 01:53:45;;;;;;;15.43;9.43;;;;;;;;;;5071644;28;20198;-82
2024/03/22 01:56:11;;;;;;;22.70;9.80;;;;;;;;;;5070837;28;20301;-82
2024/03/22 01:58:39;;;;;;;33.93;10.57;;;;;;;;;;5070360;28;20712;-82
2024/03/22 02:01:05;;;;;;;29.93;9.67;;;;;;;;;;5070516;28;20675;-82
2024/03/22 02:03:32;;;;;;;25.60;9.87;;;;;;;;;;5070540;28;20293;-83
2024/03/22 02:06:00;;;;;;;26.97;9.97;;;;;;;;;;5071331;28;20287;-83
2024/03/22 02:08:27;;;;;;;38.63;9.87;;;;;;;;;;5070536;28;20209;-82
2024/03/22 02:10:53;;;;;;;49.40;10.73;;;;;;;;;;5070551;28;20740;-81
2024/03/22 02:13:20;;;;;;;41.03;9.93;;;;;;;;;;5089224;28;20293;-83
2024/03/22 02:15:46;;;;;;;19.77;9.73;;;;;;;;;;5111170;28;20594;-82
2024/03/22 02:18:14;;;;;;;20.37;10.10;;;;;;;;;;5111265;28;20296;-82
2024/03/22 02:20:40;;;;;;;22.33;9.60;;;;;;;;;;5111161;28;20232;-82
2024/03/22 02:23:08;;;;;;;23.20;10.00;;;;;;;;;;5111060;28;20662;-82
2024/03/22 02:25:36;;;;;;;86.90;10.53;;;;;;;;;;5111703;28;20234;-82
2024/03/22 02:28:03;;;;;;;54.50;10.27;;;;;;;;;;5111031;28;20205;-82
2024/03/22 02:30:30;;;;;;;27.97;9.70;;;;;;;;;;5111190;28;20403;-82
2024/03/22 02:32:57;;;;;;;37.73;9.60;;;;;;;;;;5111686;28;20201;-82
2024/03/22 02:35:23;;;;;;;72.27;10.73;;;;;;;;;;5110991;28;20651;-82
2024/03/22 02:37:50;;;;;;;15.13;9.27;;;;;;;;;;5072215;28;20198;-82
2024/03/22 02:40:17;;;;;;;19.97;9.60;;;;;;;;;;5070388;28;20309;-82
2024/03/22 02:42:45;;;;;;;17.07;9.60;;;;;;;;;;5073116;28;20222;-82
2024/03/22 02:45:11;;;;;;;20.63;9.67;;;;;;;;;;5079524;28;20239;-82
2024/03/22 02:47:39;;;;;;;27.17;10.03;;;;;;;;;;5070641;28;20273;-82
2024/03/22 02:50:05;;;;;;;16.53;9.80;;;;;;;;;;5072499;28;20245;-82
2024/03/22 02:52:33;;;;;;;52.30;9.80;;;;;;;;;;5074051;28;20199;-82
2024/03/22 02:54:59;;;;;;;31.87;10.60;;;;;;;;;;5073960;28;20713;-83
2024/03/22 02:57:26;;;;;;;17.97;8.83;;;;;;;;;;5073701;28;20210;-81
2024/03/22 02:59:54;;;;;;;31.87;10.23;;;;;;;;;;5073525;28;20287;-82
2024/03/22 03:02:21;;;;;;;45.30;10.73;;;;;;;;;;5073619;28;20234;-81
2024/03/22 03:04:47;;;;;;;26.57;9.63;;;;;;;;;;5073718;28;20326;-82
2024/03/22 03:07:14;;;;;;;26.00;10.27;;;;;;;;;;5073603;28;20203;-82
2024/03/22 03:09:41;;;;;;;17.07;9.57;;;;;;;;;;5074067;28;20231;-82
2024/03/22 03:12:08;;;;;;;52.93;10.70;;;;;;;;;;5073552;28;20195;-81
2024/03/22 03:14:34;;;;;;;33.87;9.10;;;;;;;;;;5113254;28;20259;-82
2024/03/22 03:17:03;;;;;;;19.33;9.63;;;;;;;;;;5114315;28;20209;-81
2024/03/22 03:19:29;;;;;;;28.80;10.40;;;;;;;;;;5114271;28;20202;-82
2024/03/22 03:21:56;;;;;;;29.10;9.70;;;;;;;;;;5114039;28;20222;-82
2024/03/22 03:24:22;;;;;;;21.20;10.20;;;;;;;;;;5113720;28;20332;-82
2024/03/22 03:26:50;;;;;;;16.73;10.00;;;;;;;;;;5113402;28;20198;-83
2024/03/22 03:29:16;;;;;;;20.30;9.60;;;;;;;;;;5114189;28;20233;-82
2024/03/22 03:31:43;;;;;;;29.33;10.37;;;;;;;;;;5114109;28;20197;-82
2024/03/22 03:34:11;;;;;;;27.77;10.03;;;;;;;;;;5113686;28;20647;-82
2024/03/22 03:36:38;;;;;;;24.20;9.40;;;;;;;;;;5113704;28;20667;-82
2024/03/22 03:39:04;;;;;;;36.50;9.77;;;;;;;;;;5113310;28;20221;-83
2024/03/22 03:41:31;;;;;;;18.47;10.03;;;;;;;;;;5113694;28;20229;-83
2024/03/22 03:43:57;;;;;;;22.03;9.67;;;;;;;;;;5113507;28;20247;-83
2024/03/22 03:46:25;;;;;;;15.53;9.57;;;;;;;;;;5113515;28;20194;-82
2024/03/22 03:48:51;;;;;;;35.07;10.63;;;;;;;;;;5113436;28;20288;-82
2024/03/22 03:51:20;;;;;;;22.00;10.17;;;;;;;;;;5113376;28;20202;-82
2024/03/22 03:53:46;;;;;;;25.50;9.87;;;;;;;;;;5113595;28;20236;-82
2024/03/22 03:56:13;;;;;;;17.03;10.00;;;;;;;;;;5113123;28;20691;-82
2024/03/22 03:58:39;;;;;;;26.37;9.50;;;;;;;;;;5113407;28;20292;-82
2024/03/22 04:01:07;;;;;;;16.67;10.00;;;;;;;;;;5112288;28;20726;-82
2024/03/22 04:03:33;;;;;;;18.83;9.80;;;;;;;;;;5111578;28;20190;-82
2024/03/22 04:06:01;;;;;;;35.57;9.30;;;;;;;;;;5112868;28;20547;-82
2024/03/22 04:08:30;;;;;;;37.43;8.90;;;;;;;;;;5112245;28;20781;-82
2024/03/22 04:10:58;;;;;;;55.27;9.80;;;;;;;;;;5113136;28;20209;-81
2024/03/22 04:13:24;;;;;;;40.53;10.07;;;;;;;;;;5113169;28;20204;-81
2024/03/22 04:15:51;;;;;;;49.57;9.50;;;;;;;;;;5113256;28;20201;-82
2024/03/22 04:18:18;;;;;;;10.63;8.77;;;;;;;;;;5113031;28;20300;-82
2024/03/22 04:20:54;;;;;;;12.53;8.70;;;;;;;;;;5113142;28;20696;-81
2024/03/22 04:23:21;;;;;;;31.83;9.70;;;;;;;;;;5112614;28;20689;-82
2024/03/22 04:25:55;;;;;;;21.67;10.07;;;;;;;;;;5112886;28;20193;-82
2024/03/22 04:28:21;;;;;;;28.70;9.70;;;;;;;;;;5112807;28;20290;-82
2024/03/22 04:30:55;;;;;;;27.87;9.70;;;;;;;;;;5113284;28;20281;-81
2024/03/22 04:33:22;;;;;;;17.27;8.60;;;;;;;;;;5113059;28;20224;-81
2024/03/22 04:35:49;;;;;;;24.70;9.00;;;;;;;;;;5112803;28;20202;-81
2024/03/22 04:38:16;;;;;;;34.10;9.10;;;;;;;;;;5111955;28;20289;-80
2024/03/22 04:40:43;;;;;;;27.73;10.67;;;;;;;;;;5112818;28;20284;-81
2024/03/22 04:43:12;;;;;;;32.07;9.10;;;;;;;;;;5094527;28;20277;-82
2024/03/22 04:45:39;;;;;;;23.57;9.37;;;;;;;;;;5092313;28;20289;-82
2024/03/22 04:48:06;;;;;;;24.57;9.80;;;;;;;;;;5092206;28;20282;-81
2024/03/22 04:50:33;;;;;;;24.33;9.73;;;;;;;;;;5091820;28;20202;-81
2024/03/22 04:52:59;;;;;;;15.90;9.10;;;;;;;;;;5091549;28;20289;-82
2024/03/22 04:55:26;;;;;;;25.53;9.30;;;;;;;;;;5091687;28;20198;-81
2024/03/22 04:57:53;;;;;;;23.97;9.17;;;;;;;;;;5091582;28;20273;-82
2024/03/22 05:00:21;;;;;;;14.83;8.60;;;;;;;;;;5092145;28;20286;-82
2024/03/22 05:02:48;;;;;;;16.83;8.30;;;;;;;;;;5091988;28;20321;-82
2024/03/22 05:05:15;;;;;;;14.20;8.27;;;;;;;;;;5091291;28;20762;-81
2024/03/22 05:07:41;;;;;;;18.90;7.73;;;;;;;;;;5091183;28;20232;-82
2024/03/22 05:10:09;;;;;;;20.30;7.60;;;;;;;;;;5091482;28;20726;-82
2024/03/22 05:12:35;;;;;;;20.30;8.57;;;;;;;;;;5094778;28;20213;-82
2024/03/22 05:15:02;;;;;;;32.13;8.53;;;;;;;;;;5111744;28;20198;-82
2024/03/22 05:17:31;;;;;;;38.30;8.60;;;;;;;;;;5111677;28;20658;-82
2024/03/22 05:19:59;;;;;;;29.87;8.77;;;;;;;;;;5111366;28;20205;-83
2024/03/22 05:22:25;;;;;;;15.57;8.37;;;;;;;;;;5111104;27;20317;-82
2024/03/22 05:24:52;;;;;;;18.73;9.07;;;;;;;;;;5111844;28;20236;-82
2024/03/22 05:27:19;;;;;;;16.40;8.90;;;;;;;;;;5111328;28;20285;-82
2024/03/22 05:29:46;;;;;;;15.17;8.77;;;;;;;;;;5111853;28;20300;-82
2024/03/22 05:32:12;;;;;;;38.33;8.80;;;;;;;;;;5111505;28;20198;-82
2024/03/22 05:34:40;;;;;;;46.60;9.27;;;;;;;;;;5111432;28;20254;-82
2024/03/22 05:37:08;;;;;;;18.83;8.60;;;;;;;;;;5111672;28;20292;-83
2024/03/22 05:39:36;;;;;;;17.37;8.73;;;;;;;;;;5111563;28;20200;-81
2024/03/22 05:42:02;;;;;;;30.33;9.27;;;;;;;;;;5111320;28;20312;-81
2024/03/22 05:44:29;;;;;;;48.93;9.07;;;;;;;;;;5111788;28;20208;-82
2024/03/22 05:46:55;;;;;;;33.20;8.63;;;;;;;;;;5111486;28;20226;-82
2024/03/22 05:49:23;;;;;;;22.17;9.17;;;;;;;;;;5111420;28;20801;-82
2024/03/22 05:51:50;;;;;;;20.60;9.40;;;;;;;;;;5111074;28;20247;-81
2024/03/22 05:54:17;;;;;;;34.53;9.70;;;;;;;;;;5111469;28;20254;-82
2024/03/22 05:56:44;;;;;;;26.40;9.07;;;;;;;;;;5111480;28;20254;-81
2024/03/22 05:59:11;;;;;;;31.33;9.13;;;;;;;;;;5111681;28;20223;-81
2024/03/22 06:01:38;;;;;;;24.07;9.53;;;;;;;;;;5111695;28;20321;-81
2024/03/22 06:04:05;;;;;;;22.63;9.67;;;;;;;;;;5111110;28;20212;-81
2024/03/22 06:06:32;;;;;;;30.83;10.07;;;;;;;;;;5111574;28;20198;-80
2024/03/22 06:09:03;;;;;;;15.97;9.40;;;;;;;;;;5111320;28;20200;-81
2024/03/22 06:11:30;;;;;;;42.43;9.50;;;;;;;;;;5111346;28;20198;-80
2024/03/22 06:13:57;;;;;;;39.20;9.70;;;;;;;;;;5111139;28;20197;-81
2024/03/22 06:16:23;;;;;;;36.47;9.20;;;;;;;;;;5110576;28;20749;-80
2024/03/22 06:18:50;;;;;;;34.47;9.87;;;;;;;;;;5110326;28;20788;-81
2024/03/22 06:21:21;;;;;;;26.23;9.97;;;;;;;;;;5111406;28;20316;-80
2024/03/22 06:23:49;;;;;;;22.97;9.67;;;;;;;;;;5111455;28;20226;-83
2024/03/22 06:26:16;;;;;;;35.70;10.03;;;;;;;;;;5115244;28;20739;-82
2024/03/22 06:28:43;;;;;;;33.93;9.37;;;;;;;;;;5115483;28;20236;-82
2024/03/22 06:31:10;;;;;;;12.77;9.40;;;;;;;;;;5115599;28;20228;-82
2024/03/22 06:33:37;;;;;;;26.13;9.43;;;;;;;;;;5114688;28;20687;-82
2024/03/22 06:36:03;;;;;;;26.10;10.10;;;;;;;;;;5115244;28;20220;-82
2024/03/22 06:38:30;;;;;;;26.87;9.40;;;;;;;;;;5114648;28;20287;-82
2024/03/22 06:40:58;;;;;;;29.87;9.10;;;;;;;;;;5105262;28;20232;-82
2024/03/22 06:43:27;;;;;;;30.93;9.37;;;;;;;;;;5093936;28;20238;-79
2024/03/22 06:45:53;;;;;;;27.47;9.20;;;;;;;;;;5091478;28;20286;-81
2024/03/22 06:48:20;;;;;;;24.80;9.87;;;;;;;;;;5093228;28;20208;-80
2024/03/22 06:50:47;;;;;;;17.53;9.07;;;;;;;;;;5093901;28;20301;-80
2024/03/22 06:53:14;;;;;;;15.80;9.50;;;;;;;;;;5094205;28;20579;-80
2024/03/22 06:55:40;;;;;;;16.67;10.07;;;;;;;;;;5094750;28;20277;-80
2024/03/22 06:58:07;;;;;;;21.37;9.70;;;;;;;;;;5093814;28;20209;-80
2024/03/22 07:00:35;;;;;;;19.27;10.70;;;;;;;;;;5094513;28;20285;-80
2024/03/22 07:03:02;;;;;;;19.87;10.33;;;;;;;;;;5093622;28;20222;-79
2024/03/22 07:05:29;;;;;;;14.57;10.33;;;;;;;;;;5094122;28;20198;-79
2024/03/22 07:07:57;;;;;;;18.37;10.43;;;;;;;;;;5094110;28;20194;-79
2024/03/22 07:10:27;;;;;;;22.53;10.17;;;;;;;;;;5094126;28;20194;-79
2024/03/22 07:12:54;;;;;;;14.50;9.93;;;;;;;;;;5093906;28;20247;-79
2024/03/22 07:15:21;;;;;;;16.27;9.70;;;;;;;;;;5094181;28;20665;-79
2024/03/22 07:17:49;;;;;;;15.70;10.33;;;;;;;;;;5093650;28;20292;-81
2024/03/22 07:20:16;;;;;;;15.50;10.67;;;;;;;;;;5093721;28;20222;-79
2024/03/22 07:22:46;;;;;;;16.57;9.77;;;;;;;;;;5093814;28;20317;-80
2024/03/22 07:25:12;;;;;;;15.47;9.77;;;;;;;;;;5093953;28;20265;-80
2024/03/22 07:27:39;;;;;;;13.37;9.77;;;;;;;;;;5093925;28;20218;-79
2024/03/22 07:30:06;;;;;;;14.60;10.10;;;;;;;;;;5093903;28;20194;-81
2024/03/22 07:32:33;;;;;;;14.77;10.43;;;;;;;;;;5093072;28;20203;-80
2024/03/22 07:35:00;;;;;;;15.20;10.53;;;;;;;;;;5092885;28;20229;-80
2024/03/22 07:37:28;;;;;;;12.33;9.80;;;;;;;;;;5092947;28;20209;-80
2024/03/22 07:39:54;;;;;;;13.97;10.20;;;;;;;;;;5093124;28;20281;-81
2024/03/22 07:42:21;;;;;;;11.57;9.23;;;;;;;;;;5093535;28;20608;-80
2024/03/22 07:44:47;;;;;;;15.13;9.57;;;;;;;;;;5093232;28;20194;-80
2024/03/22 07:47:15;;;;;;;15.70;9.47;;;;;;;;;;5093466;28;20215;-80
2024/03/22 07:49:41;;;;;;;15.37;10.10;;;;;;;;;;5084125;28;20226;-80
2024/03/22 07:52:10;;;;;;;12.73;9.50;;;;;;;;;;5073087;28;20207;-80
2024/03/22 07:54:36;;;;;;;17.57;9.53;;;;;;;;;;5073232;28;20743;-80
2024/03/22 07:57:03;;;;;;;12.83;9.70;;;;;;;;;;5073169;28;20207;-80
2024/03/22 07:59:29;;;;;;;11.60;8.93;;;;;;;;;;5072923;28;20203;-79
2024/03/22 08:01:57;;;;;;;12.23;8.67;;;;;;;;;;5072864;28;20233;-80
2024/03/22 08:04:24;;;;;;;16.27;8.53;;;;;;;;;;5072506;28;20195;-79
2024/03/22 08:06:52;;;;;;;11.13;9.00;;;;;;;;;;5072635;28;20203;-80
2024/03/22 08:09:20;;;;;;;12.00;8.60;;;;;;;;;;5071650;28;20899;-79
2024/03/22 08:11:47;;;;;;;15.13;9.10;;;;;;;;;;5072873;28;20246;-80
2024/03/22 08:14:13;;;;;;;11.97;8.93;;;;;;;;;;5106526;28;20269;-80
2024/03/22 08:16:41;;;;;;;13.77;9.60;;;;;;;;;;5111500;28;20202;-80
2024/03/22 08:19:07;;;;;;;13.30;8.97;;;;;;;;;;5113425;28;20221;-80
2024/03/22 08:21:34;;;;;;;10.77;8.47;;;;;;;;;;5113244;28;20217;-79
2024/03/22 08:24:00;;;;;;;12.33;8.57;;;;;;;;;;5112775;28;20274;-80
2024/03/22 08:26:29;;;;;;;13.57;9.70;;;;;;;;;;5113286;28;20766;-79
2024/03/22 08:28:55;;;;;;;12.57;9.23;;;;;;;;;;5113027;28;20277;-80
2024/03/22 08:31:25;;;;;;;12.37;8.97;;;;;;;;;;5112751;28;20204;-80
2024/03/22 08:33:51;;;;;;;11.07;8.93;;;;;;;;;;5113383;28;20198;-80
2024/03/22 08:36:19;;;;;;;13.00;9.50;;;;;;;;;;5112829;28;20672;-80
2024/03/22 08:38:45;;;;;;;15.63;9.90;;;;;;;;;;5112847;28;20225;-80
2024/03/22 08:41:12;;;;;;;12.77;9.50;;;;;;;;;;5112803;28;20198;-80
2024/03/22 08:43:40;;;;;;;13.70;9.67;;;;;;;;;;5112826;28;20320;-79
2024/03/22 08:46:07;;;;;;;13.47;10.13;;;;;;;;;;5112645;28;20202;-79
2024/03/22 08:48:33;;;;;;;13.77;10.37;;;;;;;;;;5112371;28;20277;-80
2024/03/22 08:51:00;;;;;;;14.87;9.97;;;;;;;;;;5112549;28;20209;-80
2024/03/22 08:53:28;;;;;;;13.70;10.17;;;;;;;;;;5112404;28;20659;-79
2024/03/22 08:55:55;;;;;;;13.17;10.23;;;;;;;;;;5112598;28;20962;-80
2024/03/22 08:58:21;;;;;;;13.07;10.13;;;;;;;;;;5112060;28;20232;-80
2024/03/22 09:00:50;;;;;;;16.47;10.40;;;;;;;;;;5112599;28;20694;-80
2024/03/22 09:03:18;;;;;;;20.60;11.47;;;;;;;;;;5112433;28;20221;-80
2024/03/22 09:05:45;;;;;;;16.20;10.93;;;;;;;;;;5112821;28;20202;-79
2024/03/22 09:08:11;;;;;;;13.50;10.07;;;;;;;;;;5112319;28;20220;-80
2024/03/22 09:10:38;;;;;;;12.63;10.00;;;;;;;;;;5112277;28;20255;-80
2024/03/22 09:13:04;;;;;;;13.50;10.53;;;;;;;;;;5111629;28;20244;-80
2024/03/22 09:15:32;;;;;;;14.27;10.57;;;;;;;;;;5112204;28;20580;-79
2024/03/22 09:17:59;;;;;;;14.83;11.10;;;;;;;;;;5112372;28;20205;-80
2024/03/22 09:20:27;;;;;;;22.53;11.90;;;;;;;;;;5112017;28;20198;-79
2024/03/22 09:22:53;;;;;;;16.03;11.17;;;;;;;;;;5112009;28;20256;-80
2024/03/22 09:25:20;;;;;;;14.97;10.20;;;;;;;;;;5112220;28;20197;-80
2024/03/22 09:27:47;;;;;;;15.13;10.50;;;;;;;;;;5112014;28;20197;-80
2024/03/22 09:30:14;;;;;;;17.60;10.47;;;;;;;;;;5112206;28;20250;-80
2024/03/22 09:32:40;;;;;;;18.33;11.10;;;;;;;;;;5112071;28;20293;-80
2024/03/22 09:35:10;;;;;;;15.77;10.30;;;;;;;;;;5111781;28;20213;-80
2024/03/22 09:37:36;;;;;;;17.40;11.07;;;;;;;;;;5112289;28;20284;-80
2024/03/22 09:40:07;;;;;;;15.93;10.67;;;;;;;;;;5112087;28;20205;-81
2024/03/22 09:42:33;;;;;;;13.13;9.43;;;;;;;;;;5111263;28;20228;-80
2024/03/22 09:45:01;;;;;;;12.77;9.40;;;;;;;;;;5111937;28;20206;-80
2024/03/22 09:47:28;;;;;;;13.03;9.77;;;;;;;;;;5111787;28;20197;-80
2024/03/22 09:49:56;;;;;;;13.73;9.63;;;;;;;;;;5112317;28;20266;-80
2024/03/22 09:52:24;;;;;;;14.47;9.53;;;;;;;;;;5111892;28;20244;-80
2024/03/22 09:54:52;;;;;;;12.90;9.47;;;;;;;;;;5111464;28;20201;-80
2024/03/22 09:57:18;;;;;;;11.87;8.80;;;;;;;;;;5111320;28;20194;-79
2024/03/22 09:59:46;;;;;;;12.17;8.60;;;;;;;;;;5114239;28;20251;-80
2024/03/22 10:02:12;;;;;;;10.27;8.30;;;;;;;;;;5114747;28;20766;-80
2024/03/22 10:04:40;;;;;;;9.77;8.17;;;;;;;;;;5115609;28;20584;-80
2024/03/22 10:07:08;;;;;;;10.50;8.10;;;;;;;;;;5115878;28;20298;-80
2024/03/22 10:09:36;;;;;;;10.17;8.27;;;;;;;;;;5115823;28;20229;-81
2024/03/22 10:12:03;;;;;;;9.77;7.43;;;;;;;;;;5115429;28;20252;-81
2024/03/22 10:14:32;;;;;;;8.37;7.30;;;;;;;;;;5115437;28;20676;-80
2024/03/22 10:16:58;;;;;;;9.60;7.40;;;;;;;;;;5115297;28;20198;-80
2024/03/22 10:19:25;;;;;;;8.07;6.70;;;;;;;;;;5114472;28;20740;-80
2024/03/22 10:22:00;;;;;;;7.80;6.63;;;;;;;;;;5114775;28;20212;-80
2024/03/22 10:24:28;;;;;;;9.80;7.33;;;;;;;;;;5115090;28;20229;-81
2024/03/22 10:26:56;;;;;;;9.90;7.13;;;;;;;;;;5115476;28;20193;-80
2024/03/22 10:29:23;;;;;;;9.53;7.50;;;;;;;;;;5115073;28;20201;-79
2024/03/22 10:31:51;;;;;;;9.50;7.10;;;;;;;;;;5115190;28;20665;-79
2024/03/22 10:34:18;;;;;;;29.90;10.07;;;;;;;;;;5115226;28;20230;-81
2024/03/22 10:36:45;;;;;;;11.37;7.43;;;;;;;;;;5115600;28;20292;-81
2024/03/22 10:39:12;;;;;;;16.30;7.23;;;;;;;;;;5096146;28;20689;-80
2024/03/22 10:41:38;;;;;;;9.73;7.13;;;;;;;;;;5094459;28;20740;-79
2024/03/22 10:44:08;;;;;;;10.43;7.33;;;;;;;;;;5094894;28;20237;-81
2024/03/22 10:46:35;;;;;;;9.17;6.90;;;;;;;;;;5093454;28;20229;-80
2024/03/22 10:49:04;;;;;;;9.63;6.67;;;;;;;;;;5094432;28;20755;-80
2024/03/22 10:51:31;;;;;;;8.23;6.00;;;;;;;;;;5094659;28;20711;-80
2024/03/22 10:54:00;;;;;;;7.57;6.70;;;;;;;;;;5094384;28;20680;-78
2024/03/22 10:56:26;;;;;;;8.50;6.30;;;;;;;;;;5093932;28;20285;-81
2024/03/22 10:58:53;;;;;;;7.97;6.47;;;;;;;;;;5094217;28;20688;-81
2024/03/22 11:01:24;;;;;;;6.83;6.13;;;;;;;;;;5094251;28;20741;-82
2024/03/22 11:03:51;;;;;;;6.60;5.43;;;;;;;;;;5094062;28;20226;-81
2024/03/22 11:06:21;;;;;;;8.00;6.30;;;;;;;;;;5094420;28;20278;-80
2024/03/22 11:08:52;;;;;;;7.30;5.83;;;;;;;;;;5094100;28;20198;-81
2024/03/22 11:11:18;;;;;;;6.03;5.30;;;;;;;;;;5093772;28;20201;-80
2024/03/22 11:13:48;;;;;;;6.73;6.00;;;;;;;;;;5107106;28;20197;-80
2024/03/22 11:16:15;;;;;;;6.07;5.10;;;;;;;;;;5114126;28;20202;-81
2024/03/22 11:18:44;;;;;;;5.93;5.28;;;;;;;;;;5113812;28;20202;-81
2024/03/22 11:21:10;;;;;;;6.25;5.57;;;;;;;;;;5114306;28;20288;-84
2024/03/22 11:23:37;;;;;;;5.70;5.15;;;;;;;;;;5113308;28;20707;-81
2024/03/22 11:26:04;;;;;;;5.80;5.30;;;;;;;;;;5114312;28;20673;-78
2024/03/22 11:28:31;;;;;;;5.05;4.50;;;;;;;;;;5113956;28;20197;-81
2024/03/22 11:30:57;;;;;;;5.22;4.72;;;;;;;;;;5114172;28;20288;-81
2024/03/22 11:33:26;;;;;;;6.28;4.90;;;;;;;;;;5114014;28;20212;-79
2024/03/22 11:35:54;;;;;;;5.97;5.38;;;;;;;;;;5114085;28;20666;-79
2024/03/22 11:38:21;;;;;;;5.47;4.97;;;;;;;;;;5113219;28;20279;-79
2024/03/22 11:40:48;;;;;;;5.65;5.15;;;;;;;;;;5114044;28;20221;-81
2024/03/22 11:43:16;;;;;;;5.38;4.88;;;;;;;;;;5113697;28;20264;-78
2024/03/22 11:45:43;;;;;;;6.32;5.38;;;;;;;;;;5113919;28;20641;-78
2024/03/22 11:48:11;;;;;;;5.53;5.03;;;;;;;;;;5114229;28;20196;-79
2024/03/22 11:50:37;;;;;;;6.95;5.75;;;;;;;;;;5113909;28;20276;-81
2024/03/22 11:53:07;;;;;;;5.85;5.25;;;;;;;;;;5113493;28;20205;-80
2024/03/22 11:55:33;;;;;;;6.63;5.25;;;;;;;;;;5113962;28;20317;-79
2024/03/22 11:58:00;;;;;;;6.10;5.50;;;;;;;;;;5113396;28;20204;-81
2024/03/22 12:00:26;;;;;;;6.72;5.88;;;;;;;;;;5113326;28;20737;-81
2024/03/22 12:02:54;;;;;;;5.95;5.35;;;;;;;;;;5113523;28;20760;-80
2024/03/22 12:05:21;;;;;;;6.03;5.20;;;;;;;;;;5080006;28;20202;-82
2024/03/22 12:07:48;;;;;;;5.97;5.38;;;;;;;;;;5089399;28;20197;-81
2024/03/22 12:10:17;;;;;;;6.45;5.72;;;;;;;;;;5076261;28;20645;-81
2024/03/22 12:12:43;;;;;;;6.35;5.65;;;;;;;;;;5085002;28;20293;-81
2024/03/22 12:15:11;;;;;;;5.90;5.30;;;;;;;;;;5080618;28;20233;-81
2024/03/22 12:17:39;;;;;;;5.90;5.28;;;;;;;;;;5089972;28;20191;-80
2024/03/22 12:20:08;;;;;;;6.72;5.78;;;;;;;;;;5088970;28;20256;-80
2024/03/22 12:22:34;;;;;;;6.03;5.40;;;;;;;;;;5084604;28;20227;-79
2024/03/22 12:25:01;;;;;;;5.78;5.18;;;;;;;;;;5082004;28;20260;-78
2024/03/22 12:27:29;;;;;;;7.38;5.70;;;;;;;;;;5088348;28;20209;-80
2024/03/22 12:29:56;;;;;;;6.82;6.10;;;;;;;;;;5092330;28;20292;-80
2024/03/22 12:32:22;;;;;;;5.97;5.38;;;;;;;;;;5092124;28;20229;-80
2024/03/22 12:34:50;;;;;;;6.38;5.40;;;;;;;;;;5091970;28;20297;-80
2024/03/22 12:37:16;;;;;;;6.28;5.20;;;;;;;;;;5091645;28;20296;-79
2024/03/22 12:39:43;;;;;;;6.75;6.05;;;;;;;;;;5084463;28;20206;-79
2024/03/22 12:42:10;;;;;;;6.47;5.35;;;;;;;;;;5091656;28;20191;-80
2024/03/22 12:44:38;;;;;;;7.47;5.07;;;;;;;;;;5082015;28;20203;-79
2024/03/22 12:47:05;;;;;;;6.30;5.72;;;;;;;;;;5078471;28;20201;-80
2024/03/22 12:49:31;;;;;;;5.60;5.10;;;;;;;;;;5071547;28;20195;-80
2024/03/22 12:51:59;;;;;;;6.40;5.80;;;;;;;;;;5087477;28;20244;-82
2024/03/22 12:54:26;;;;;;;5.60;5.10;;;;;;;;;;5078979;28;20222;-81
2024/03/22 12:56:53;;;;;;;5.75;5.22;;;;;;;;;;5080095;28;20195;-82
2024/03/22 12:59:20;;;;;;;7.38;5.03;;;;;;;;;;5076399;28;20249;-82
2024/03/22 13:01:49;;;;;;;5.68;5.18;;;;;;;;;;5087643;28;20205;-82
2024/03/22 13:04:15;;;;;;;5.55;4.95;;;;;;;;;;5076994;28;20322;-84
2024/03/22 13:06:42;;;;;;;6.00;5.40;;;;;;;;;;5081049;28;20199;-82
2024/03/22 13:09:09;;;;;;;5.63;5.05;;;;;;;;;;5084594;28;20748;-81
2024/03/22 13:11:37;;;;;;;5.53;5.03;;;;;;;;;;5074456;28;20202;-81
2024/03/22 13:14:03;;;;;;;6.05;5.55;;;;;;;;;;5102114;28;20219;-82
2024/03/22 13:16:30;;;;;;;6.13;5.53;;;;;;;;;;5082023;28;20194;-82
2024/03/22 13:18:58;;;;;;;5.28;4.75;;;;;;;;;;5091393;28;20198;-82
2024/03/22 13:21:26;;;;;;;5.20;4.70;;;;;;;;;;5091127;28;20585;-83
2024/03/22 13:23:53;;;;;;;6.22;5.63;;;;;;;;;;5090492;28;20621;-82
2024/03/22 13:26:20;;;;;;;5.32;4.82;;;;;;;;;;5090849;28;20558;-82
2024/03/22 13:28:46;;;;;;;7.00;6.30;;;;;;;;;;5091173;28;20198;-82
2024/03/22 13:31:15;;;;;;;8.15;6.25;;;;;;;;;;5091371;28;20680;-82
2024/03/22 13:33:41;;;;;;;7.15;5.75;;;;;;;;;;5090267;28;20596;-82
2024/03/22 13:36:10;;;;;;;6.18;5.57;;;;;;;;;;5090425;28;20206;-82
2024/03/22 13:38:37;;;;;;;6.35;5.72;;;;;;;;;;5090768;28;20297;-83
2024/03/22 13:41:05;;;;;;;6.18;5.57;;;;;;;;;;5091317;28;20271;-82
2024/03/22 13:43:32;;;;;;;7.15;5.43;;;;;;;;;;5089913;28;20261;-82
2024/03/22 13:45:59;;;;;;;6.57;5.90;;;;;;;;;;5090667;28;20255;-82
2024/03/22 13:48:25;;;;;;;6.25;5.65;;;;;;;;;;5090101;28;20234;-83
2024/03/22 13:50:53;;;;;;;6.43;5.82;;;;;;;;;;5090935;28;20210;-83
2024/03/22 13:53:21;;;;;;;5.90;5.30;;;;;;;;;;5090752;28;20729;-83
2024/03/22 13:55:49;;;;;;;6.03;5.43;;;;;;;;;;5091041;28;20293;-83
2024/03/22 13:58:15;;;;;;;5.80;5.20;;;;;;;;;;5090588;28;20226;-82
2024/03/22 14:00:42;;;;;;;6.30;5.65;;;;;;;;;;5090794;28;20203;-83
2024/03/22 14:03:09;;;;;;;6.85;6.00;;;;;;;;;;5090754;28;20244;-83
2024/03/22 14:05:36;;;;;;;6.18;5.57;;;;;;;;;;5091064;28;20217;-82
2024/03/22 14:08:03;;;;;;;6.25;5.22;;;;;;;;;;5090430;28;20237;-83
2024/03/22 14:10:32;;;;;;;6.68;5.90;;;;;;;;;;5090395;28;20202;-83
2024/03/22 14:12:59;;;;;;;5.75;5.15;;;;;;;;;;5097057;28;20232;-82
2024/03/22 14:15:27;;;;;;;6.80;6.20;;;;;;;;;;5111417;28;20251;-82
2024/03/22 14:17:55;;;;;;;6.63;6.00;;;;;;;;;;5110683;28;20201;-82
2024/03/22 14:20:21;;;;;;;6.65;6.05;;;;;;;;;;5110569;28;20198;-82
2024/03/22 14:22:48;;;;;;;6.70;5.97;;;;;;;;;;5109004;28;20213;-83
2024/03/22 14:25:15;;;;;;;7.03;6.38;;;;;;;;;;5082387;28;20724;-82
2024/03/22 14:27:45;;;;;;;6.88;5.88;;;;;;;;;;5090155;28;20221;-82
2024/03/22 14:30:12;;;;;;;5.28;4.50;;;;;;;;;;5090170;28;20270;-83